createdAt,value
2023-11-18T00:00:29.340Z,40.73
2023-11-18T00:03:00.233Z,40.75
2023-11-18T00:05:31.174Z,40.73
2023-11-18T00:08:02.158Z,40.85
2023-11-18T00:10:32.970Z,40.96
2023-11-18T00:13:05.200Z,41.11
2023-11-18T00:15:37.179Z,41.54
2023-11-18T00:18:08.215Z,41.57
2023-11-18T00:20:38.973Z,41.84
2023-11-18T00:23:09.789Z,41.99
2023-11-18T00:25:41.515Z,42.01
2023-11-18T00:28:12.928Z,42.07
2023-11-18T00:30:43.662Z,42.25
2023-11-18T00:33:14.530Z,42.46
2023-11-18T00:35:46.662Z,42.73
2023-11-18T00:38:18.914Z,42.62
2023-11-18T00:40:49.697Z,42.71
2023-11-18T00:43:20.467Z,42.33
2023-11-18T00:45:52.480Z,42.43
2023-11-18T00:48:23.291Z,42.58
2023-11-18T00:50:54.132Z,42.31
2023-11-18T00:53:25.627Z,42.27
2023-11-18T00:55:56.410Z,42.18
2023-11-18T00:58:27.179Z,42.04
2023-11-18T01:00:58.008Z,42.09
2023-11-18T01:03:29.217Z,42.28
2023-11-18T01:06:00.507Z,42.74
2023-11-18T01:08:31.295Z,42.93
2023-11-18T01:11:02.082Z,43.03
2023-11-18T01:13:33.360Z,43.40
2023-11-18T01:16:05.694Z,43.19
2023-11-18T01:18:36.736Z,43.40
2023-11-18T01:21:10.095Z,44.00
2023-11-18T01:23:43.831Z,44.29
2023-11-18T01:26:14.642Z,44.30
2023-11-18T01:28:46.477Z,44.52
2023-11-18T01:31:18.672Z,45.12
2023-11-18T01:33:51.324Z,45.38
2023-11-18T01:36:22.060Z,45.74
2023-11-18T01:38:52.806Z,46.06
2023-11-18T01:41:23.594Z,45.92
2023-11-18T01:43:55.152Z,46.04
2023-11-18T01:46:31.122Z,46.46
2023-11-18T01:49:02.104Z,47.09
2023-11-18T01:51:33.308Z,46.66
2023-11-18T01:54:05.248Z,47.53
2023-11-18T01:56:36.099Z,48.12
2023-11-18T01:59:10.388Z,48.20
2023-11-18T02:01:44.514Z,48.08
2023-11-18T02:04:15.492Z,48.22
2023-11-18T02:06:49.061Z,48.43
2023-11-18T02:09:20.754Z,48.49
2023-11-18T02:12:07.898Z,48.50
2023-11-18T02:14:41.611Z,48.45
2023-11-18T02:17:16.628Z,48.43
2023-11-18T02:19:47.907Z,48.58
2023-11-18T02:22:19.315Z,48.06
2023-11-18T02:24:51.287Z,47.70
2023-11-18T02:27:23.509Z,48.18
2023-11-18T02:29:54.536Z,48.13
2023-11-18T02:32:31.973Z,49.59
2023-11-18T02:35:12.049Z,50.49
2023-11-18T02:37:48.890Z,49.94
2023-11-18T02:40:25.801Z,50.13
2023-11-18T02:42:58.433Z,50.11
2023-11-18T02:45:33.140Z,50.17
2023-11-18T02:48:04.074Z,50.37
2023-11-18T02:50:36.610Z,51.13
2023-11-18T02:53:07.607Z,51.08
2023-11-18T02:55:38.351Z,50.82
2023-11-18T02:58:09.192Z,51.15
2023-11-18T03:00:39.895Z,51.49
2023-11-18T03:03:10.659Z,51.56
2023-11-18T03:05:41.555Z,51.69
2023-11-18T03:08:12.739Z,51.77
2023-11-18T03:10:45.629Z,52.01
2023-11-18T03:13:16.455Z,52.21
2023-11-18T03:15:49.360Z,52.57
2023-11-18T03:18:20.262Z,52.95
2023-11-18T03:20:51.386Z,52.86
2023-11-18T03:23:22.512Z,53.69
2023-11-18T03:25:53.791Z,54.10
2023-11-18T03:28:24.598Z,54.59
2023-11-18T03:30:55.768Z,54.50
2023-11-18T03:33:26.539Z,55.13
2023-11-18T03:35:57.459Z,54.80
2023-11-18T03:38:29.849Z,54.72
2023-11-18T03:41:00.677Z,54.22
2023-11-18T03:43:31.507Z,54.07
2023-11-18T03:46:02.280Z,54.42
2023-11-18T03:48:33.010Z,54.56
2023-11-18T03:51:04.869Z,55.05
2023-11-18T03:53:36.131Z,55.58
2023-11-18T03:56:07.795Z,55.87
2023-11-18T03:58:38.592Z,55.49
2023-11-18T04:01:12.339Z,55.34
2023-11-18T04:03:43.183Z,55.26
2023-11-18T04:06:15.126Z,55.29
2023-11-18T04:08:48.176Z,55.48
2023-11-18T04:11:19.362Z,55.34
2023-11-18T04:13:50.212Z,55.63
2023-11-18T04:16:21.259Z,55.90
2023-11-18T04:18:52.108Z,56.48
2023-11-18T04:21:22.875Z,56.62
2023-11-18T04:23:53.584Z,56.74
2023-11-18T04:26:25.706Z,56.74
2023-11-18T04:28:56.499Z,56.66
2023-11-18T04:31:27.398Z,56.67
2023-11-18T04:33:58.145Z,56.66
2023-11-18T04:36:30.193Z,56.76
2023-11-18T04:39:01.003Z,56.95
2023-11-18T04:41:32.761Z,56.82
2023-11-18T04:44:03.680Z,57.65
2023-11-18T04:46:35.454Z,57.25
2023-11-18T04:49:06.708Z,56.54
2023-11-18T04:51:37.764Z,56.49
2023-11-18T04:54:09.463Z,56.65
2023-11-18T04:56:40.329Z,56.76
2023-11-18T04:59:11.035Z,56.47
2023-11-18T05:01:42.017Z,56.58
2023-11-18T05:04:12.804Z,56.87
2023-11-18T05:06:43.671Z,57.12
2023-11-18T05:09:14.356Z,57.25
2023-11-18T05:11:45.871Z,57.05
2023-11-18T05:14:18.156Z,57.22
2023-11-18T05:16:48.969Z,56.88
2023-11-18T05:19:19.745Z,57.02
2023-11-18T05:21:51.437Z,56.84
2023-11-18T05:24:22.218Z,56.80
2023-11-18T05:26:53.752Z,56.79
2023-11-18T05:29:25.066Z,56.72
2023-11-18T05:31:56.956Z,56.72
2023-11-18T05:34:27.790Z,56.91
2023-11-18T05:37:00.531Z,57.11
2023-11-18T05:39:32.192Z,57.03
2023-11-18T05:42:03.084Z,57.16
2023-11-18T05:44:38.729Z,57.41
2023-11-18T05:47:09.833Z,57.62
2023-11-18T05:49:40.707Z,57.67
2023-11-18T05:52:13.057Z,57.79
2023-11-18T05:54:43.838Z,57.91
2023-11-18T05:57:14.577Z,58.38
2023-11-18T05:59:45.317Z,58.68
2023-11-18T06:02:19.415Z,58.72
2023-11-18T06:04:50.812Z,58.69
2023-11-18T06:07:21.625Z,58.61
2023-11-18T06:09:53.351Z,59.08
2023-11-18T06:12:24.109Z,59.17
2023-11-18T06:14:54.808Z,59.10
2023-11-18T06:17:24.785Z,59.11
2023-11-18T06:19:55.626Z,59.10
2023-11-18T06:22:26.733Z,59.17
2023-11-18T06:24:57.523Z,59.50
2023-11-18T06:27:28.442Z,69.59
2023-11-18T06:29:59.136Z,80.12
2023-11-18T06:32:32.258Z,75.85
2023-11-18T06:35:03.617Z,65.08
2023-11-18T06:37:37.508Z,62.05
2023-11-18T06:40:17.676Z,60.77
2023-11-18T06:42:48.732Z,60.10
2023-11-18T06:45:19.502Z,74.13
2023-11-18T06:47:50.394Z,76.01
2023-11-18T06:50:25.624Z,65.36
2023-11-18T06:52:56.936Z,61.54
2023-11-18T06:55:28.344Z,59.85
2023-11-18T06:57:59.041Z,58.85
2023-11-18T07:00:30.066Z,58.31
2023-11-18T07:03:02.556Z,58.21
2023-11-18T07:05:33.580Z,57.85
2023-11-18T07:08:04.425Z,57.84
2023-11-18T07:10:36.210Z,57.71
2023-11-18T07:13:08.360Z,57.86
2023-11-18T07:15:39.050Z,57.92
2023-11-18T07:18:10.167Z,57.57
2023-11-18T07:20:40.902Z,57.47
2023-11-18T07:23:11.671Z,57.39
2023-11-18T07:25:44.681Z,58.82
2023-11-18T07:28:18.127Z,57.55
2023-11-18T07:30:49.400Z,57.73
2023-11-18T07:33:20.764Z,57.46
2023-11-18T07:35:51.991Z,57.04
2023-11-18T07:38:22.832Z,57.13
2023-11-18T07:40:57.555Z,57.21
2023-11-18T07:43:29.953Z,57.46
2023-11-18T07:46:00.720Z,57.46
2023-11-18T07:48:32.448Z,57.24
2023-11-18T07:51:03.150Z,57.12
2023-11-18T07:53:33.831Z,57.13
2023-11-18T07:56:04.734Z,57.26
2023-11-18T07:58:38.459Z,56.60
2023-11-18T08:01:10.101Z,56.44
2023-11-18T08:03:42.627Z,56.59
2023-11-18T08:06:14.148Z,56.38
2023-11-18T08:08:44.828Z,55.48
2023-11-18T08:11:15.832Z,53.82
2023-11-18T08:13:47.146Z,53.80
2023-11-18T08:16:17.956Z,53.79
2023-11-18T08:18:48.706Z,52.97
2023-11-18T08:21:19.365Z,53.02
2023-11-18T08:23:51.434Z,52.32
2023-11-18T08:26:23.289Z,51.98
2023-11-18T08:28:54.212Z,51.84
2023-11-18T08:31:25.000Z,51.60
2023-11-18T08:33:56.386Z,51.26
2023-11-18T08:36:28.282Z,50.22
2023-11-18T08:38:59.017Z,50.51
2023-11-18T08:41:32.322Z,50.59
2023-11-18T08:44:14.149Z,50.44
2023-11-18T08:46:53.372Z,50.22
2023-11-18T08:49:24.189Z,50.41
2023-11-18T08:51:57.856Z,50.01
2023-11-18T08:54:37.744Z,47.82
2023-11-18T08:57:24.820Z,46.88
2023-11-18T08:59:59.985Z,46.36
2023-11-18T09:02:34.696Z,46.95
2023-11-18T09:05:14.031Z,46.94
2023-11-18T09:07:49.493Z,46.10
2023-11-18T09:10:21.941Z,45.26
2023-11-18T09:12:55.914Z,44.65
2023-11-18T09:15:27.699Z,44.44
2023-11-18T09:17:59.176Z,42.67
2023-11-18T09:20:30.378Z,42.41
2023-11-18T09:23:01.168Z,42.72
2023-11-18T09:25:33.914Z,42.68
2023-11-18T09:28:05.184Z,42.59
2023-11-18T09:30:39.896Z,42.00
2023-11-18T09:33:15.296Z,39.76
2023-11-18T09:35:46.623Z,40.17
2023-11-18T09:38:17.746Z,39.78
2023-11-18T09:40:49.572Z,40.36
2023-11-18T09:43:23.074Z,39.84
2023-11-18T09:45:58.992Z,38.28
2023-11-18T09:48:30.151Z,38.00
2023-11-18T09:51:03.803Z,38.15
2023-11-18T09:53:41.287Z,38.45
2023-11-18T09:56:27.573Z,37.74
2023-11-18T09:59:08.038Z,36.80
2023-11-18T10:01:45.312Z,36.66
2023-11-18T10:04:19.598Z,37.92
2023-11-18T10:06:54.786Z,37.24
2023-11-18T10:09:38.200Z,36.48
2023-11-18T10:12:13.811Z,36.65
2023-11-18T10:14:45.904Z,35.99
2023-11-18T10:17:19.157Z,36.37
2023-11-18T10:20:01.235Z,34.89
2023-11-18T10:22:33.712Z,35.51
2023-11-18T10:25:07.169Z,36.14
2023-11-18T10:27:39.909Z,36.27
2023-11-18T10:30:20.414Z,35.57
2023-11-18T10:33:06.982Z,35.25
2023-11-18T10:35:38.536Z,35.00
2023-11-18T10:38:10.073Z,34.99
2023-11-18T10:40:40.823Z,34.80
2023-11-18T10:43:11.756Z,36.09
2023-11-18T10:45:45.775Z,35.56
2023-11-18T10:48:17.783Z,34.93
2023-11-18T10:50:52.066Z,35.64
2023-11-18T10:53:24.158Z,34.29
2023-11-18T10:55:55.689Z,34.72
2023-11-18T10:58:27.573Z,34.49
2023-11-18T11:01:01.587Z,34.54
2023-11-18T11:03:37.170Z,34.35
2023-11-18T11:06:20.769Z,34.80
2023-11-18T11:08:51.699Z,33.94
2023-11-18T11:11:24.596Z,33.14
2023-11-18T11:13:58.760Z,33.75
2023-11-18T11:16:42.695Z,33.92
2023-11-18T11:19:23.713Z,33.82
2023-11-18T11:22:03.463Z,34.07
2023-11-18T11:24:48.014Z,34.96
2023-11-18T11:27:37.066Z,36.35
2023-11-18T11:30:16.305Z,36.46
2023-11-18T11:32:53.189Z,34.11
2023-11-18T11:35:34.195Z,33.72
2023-11-18T11:38:11.228Z,32.35
2023-11-18T11:40:44.108Z,32.96
2023-11-18T11:43:22.401Z,33.87
2023-11-18T11:45:56.720Z,34.58
2023-11-18T11:48:29.335Z,34.62
2023-11-18T11:51:15.394Z,33.82
2023-11-18T11:53:53.636Z,33.94
2023-11-18T11:56:39.822Z,34.16
2023-11-18T11:59:12.546Z,33.45
2023-11-18T12:01:48.403Z,34.01
2023-11-18T12:04:24.303Z,33.54
2023-11-18T12:07:05.874Z,32.44
2023-11-18T12:09:45.238Z,33.68
2023-11-18T12:12:27.559Z,34.46
2023-11-18T12:15:07.172Z,34.76
2023-11-18T12:18:18.657Z,32.53
2023-11-18T12:20:55.031Z,31.79
2023-11-18T12:23:27.240Z,32.64
2023-11-18T12:25:59.743Z,32.60
2023-11-18T12:28:36.490Z,32.05
2023-11-18T12:31:16.384Z,32.53
2023-11-18T12:34:10.075Z,32.69
2023-11-18T12:37:20.761Z,32.69
2023-11-18T12:40:21.491Z,32.07
2023-11-18T12:43:08.846Z,33.08
2023-11-18T12:46:15.875Z,32.98
2023-11-18T12:48:52.746Z,33.48
2023-11-18T12:51:24.837Z,34.02
2023-11-18T12:53:55.563Z,34.74
2023-11-18T12:56:29.838Z,33.84
2023-11-18T12:59:00.718Z,34.80
2023-11-18T13:01:35.026Z,32.49
2023-11-18T13:04:06.240Z,33.98
2023-11-18T13:06:37.038Z,33.01
2023-11-18T13:09:10.941Z,32.97
2023-11-18T13:11:43.870Z,34.16
2023-11-18T13:14:14.704Z,33.87
2023-11-18T13:16:47.158Z,33.02
2023-11-18T13:19:27.394Z,33.08
2023-11-18T13:22:01.700Z,31.72
2023-11-18T13:24:32.704Z,32.67
2023-11-18T13:27:05.727Z,32.06
2023-11-18T13:29:37.218Z,32.53
2023-11-18T13:32:10.814Z,32.85
2023-11-18T13:34:43.594Z,32.79
2023-11-18T13:37:18.152Z,32.29
2023-11-18T13:39:55.627Z,31.99
2023-11-18T13:42:29.316Z,31.79
2023-11-18T13:45:09.380Z,32.24
2023-11-18T13:47:41.256Z,32.29
2023-11-18T13:50:15.177Z,31.94
2023-11-18T13:52:45.953Z,32.75
2023-11-18T13:55:26.719Z,33.31
2023-11-18T13:57:59.260Z,32.53
2023-11-18T14:00:32.552Z,33.25
2023-11-18T14:03:05.714Z,33.36
2023-11-18T14:05:38.908Z,33.03
2023-11-18T14:08:11.589Z,33.39
2023-11-18T14:10:42.938Z,32.88
2023-11-18T14:13:18.711Z,32.85
2023-11-18T14:15:50.370Z,33.29
2023-11-18T14:18:21.151Z,34.04
2023-11-18T14:20:52.001Z,34.36
2023-11-18T14:23:23.283Z,34.78
2023-11-18T14:25:54.118Z,34.99
2023-11-18T14:28:27.601Z,35.12
2023-11-18T14:30:59.096Z,35.95
2023-11-18T14:33:30.110Z,35.92
2023-11-18T14:36:01.998Z,36.22
2023-11-18T14:38:35.485Z,36.70
2023-11-18T14:41:08.413Z,37.07
2023-11-18T14:43:39.291Z,37.13
2023-11-18T14:46:10.601Z,37.33
2023-11-18T14:48:41.338Z,37.68
2023-11-18T14:51:12.342Z,37.85
2023-11-18T14:53:44.417Z,37.94
2023-11-18T14:56:15.971Z,38.28
2023-11-18T14:58:50.449Z,38.58
2023-11-18T15:01:21.360Z,38.88
2023-11-18T15:03:52.350Z,38.76
2023-11-18T15:06:30.084Z,39.00
2023-11-18T15:09:00.804Z,39.20
2023-11-18T15:11:32.738Z,39.47
2023-11-18T15:14:04.383Z,39.20
2023-11-18T15:16:35.301Z,39.72
2023-11-18T15:19:07.157Z,39.83
2023-11-18T15:21:37.938Z,39.97
2023-11-18T15:24:10.113Z,40.02
2023-11-18T15:26:40.909Z,40.17
2023-11-18T15:29:16.098Z,40.32
2023-11-18T15:31:47.251Z,40.90
2023-11-18T15:34:18.029Z,40.91
2023-11-18T15:36:49.005Z,40.96
2023-11-18T15:39:20.097Z,41.02
2023-11-18T15:41:50.953Z,41.55
2023-11-18T15:44:21.868Z,42.16
2023-11-18T15:46:54.207Z,42.03
2023-11-18T15:49:26.060Z,42.44
2023-11-18T15:51:56.732Z,42.49
2023-11-18T15:54:27.478Z,42.78
2023-11-18T15:56:59.978Z,43.04
2023-11-18T15:59:31.968Z,43.06
2023-11-18T16:02:05.151Z,43.43
2023-11-18T16:04:35.966Z,43.48
2023-11-18T16:07:07.749Z,44.00
2023-11-18T16:09:38.645Z,44.20
2023-11-18T16:12:10.485Z,44.37
2023-11-18T16:14:41.316Z,44.94
2023-11-18T16:17:12.750Z,45.20
2023-11-18T16:19:43.951Z,45.79
2023-11-18T16:22:14.927Z,46.38
2023-11-18T16:24:45.721Z,46.70
2023-11-18T16:27:17.017Z,46.94
2023-11-18T16:29:47.734Z,47.26
2023-11-18T16:32:18.569Z,47.82
2023-11-18T16:34:49.481Z,48.20
2023-11-18T16:37:21.900Z,49.28
2023-11-18T16:39:53.387Z,49.10
2023-11-18T16:42:28.255Z,50.04
2023-11-18T16:45:00.847Z,49.91
2023-11-18T16:47:31.607Z,50.19
2023-11-18T16:50:04.475Z,50.55
2023-11-18T16:52:36.028Z,50.47
2023-11-18T16:55:07.707Z,50.50
2023-11-18T16:57:38.564Z,50.53
2023-11-18T17:00:17.818Z,50.47
2023-11-18T17:02:52.055Z,50.45
2023-11-18T17:05:23.194Z,50.43
2023-11-18T17:07:55.529Z,50.36
2023-11-18T17:10:26.795Z,50.31
2023-11-18T17:12:59.166Z,50.15
2023-11-18T17:15:30.308Z,49.97
2023-11-18T17:18:04.073Z,49.78
2023-11-18T17:20:35.674Z,49.86
2023-11-18T17:23:06.494Z,50.04
2023-11-18T17:25:38.008Z,49.96
2023-11-18T17:28:09.253Z,50.23
2023-11-18T17:30:40.080Z,50.13
2023-11-18T17:33:12.807Z,49.92
2023-11-18T17:35:44.325Z,49.85
2023-11-18T17:38:15.492Z,49.89
2023-11-18T17:40:47.360Z,49.93
2023-11-18T17:43:18.064Z,49.93
2023-11-18T17:45:50.065Z,49.83
2023-11-18T17:48:21.074Z,49.82
2023-11-18T17:50:54.048Z,50.01
2023-11-18T17:53:25.272Z,50.13
2023-11-18T17:55:56.019Z,49.84
2023-11-18T17:58:27.101Z,49.67
2023-11-18T18:00:59.249Z,49.40
2023-11-18T18:03:30.137Z,49.51
2023-11-18T18:06:01.551Z,49.53
2023-11-18T18:08:35.571Z,49.77
2023-11-18T18:11:09.450Z,49.93
2023-11-18T18:13:41.056Z,50.07
2023-11-18T18:16:14.379Z,50.52
2023-11-18T18:18:45.288Z,50.67
2023-11-18T18:21:16.049Z,50.48
2023-11-18T18:23:46.876Z,50.73
2023-11-18T18:26:17.654Z,50.86
2023-11-18T18:28:48.662Z,50.89
2023-11-18T18:31:19.542Z,51.14
2023-11-18T18:33:52.248Z,51.13
2023-11-18T18:36:23.031Z,51.37
2023-11-18T18:38:53.747Z,51.40
2023-11-18T18:41:24.492Z,51.46
2023-11-18T18:43:55.247Z,51.69
2023-11-18T18:46:26.457Z,51.73
2023-11-18T18:48:57.146Z,51.74
2023-11-18T18:51:27.871Z,52.13
2023-11-18T18:53:58.561Z,52.28
2023-11-18T18:56:30.180Z,52.34
2023-11-18T18:59:00.988Z,52.61
2023-11-18T19:01:32.311Z,54.78
2023-11-18T19:04:03.183Z,69.42
2023-11-18T19:06:34.262Z,63.94
2023-11-18T19:09:05.405Z,57.02
2023-11-18T19:11:36.229Z,54.70
2023-11-18T19:14:08.530Z,53.77
2023-11-18T19:16:42.788Z,53.48
2023-11-18T19:19:18.410Z,53.54
2023-11-18T19:21:52.007Z,53.65
2023-11-18T19:24:22.935Z,53.94
2023-11-18T19:26:54.235Z,54.18
2023-11-18T19:29:25.157Z,54.35
2023-11-18T19:31:55.989Z,54.30
2023-11-18T19:34:26.674Z,54.45
2023-11-18T19:36:57.382Z,54.53
2023-11-18T19:39:28.445Z,54.65
2023-11-18T19:41:59.805Z,54.71
2023-11-18T19:44:32.165Z,54.79
2023-11-18T19:47:02.934Z,54.90
2023-11-18T19:49:35.017Z,55.18
2023-11-18T19:52:08.184Z,55.15
2023-11-18T19:54:40.430Z,55.07
2023-11-18T19:57:12.303Z,55.40
2023-11-18T19:59:43.119Z,55.49
2023-11-18T20:02:14.518Z,55.58
2023-11-18T20:04:47.344Z,55.50
2023-11-18T20:07:19.469Z,55.67
2023-11-18T20:09:50.184Z,56.07
2023-11-18T20:12:24.261Z,56.24
2023-11-18T20:14:55.248Z,56.37
2023-11-18T20:17:26.132Z,56.65
2023-11-18T20:19:58.074Z,56.63
2023-11-18T20:22:28.766Z,56.72
2023-11-18T20:25:00.939Z,56.76
2023-11-18T20:27:31.631Z,57.47
2023-11-18T20:30:03.081Z,57.77
2023-11-18T20:32:34.836Z,57.69
2023-11-18T20:35:06.995Z,57.73
2023-11-18T20:37:37.733Z,57.87
2023-11-18T20:40:12.274Z,57.86
2023-11-18T20:42:45.933Z,58.08
2023-11-18T20:45:18.961Z,58.17
2023-11-18T20:47:50.648Z,58.38
2023-11-18T20:50:21.558Z,58.64
2023-11-18T20:52:52.363Z,58.56
2023-11-18T20:57:57.268Z,58.62
2023-11-18T21:00:26.963Z,58.67
2023-11-18T21:02:57.736Z,58.83
2023-11-18T21:05:30.416Z,58.68
2023-11-18T21:08:02.045Z,58.83
2023-11-18T21:10:34.485Z,58.70
2023-11-18T21:13:08.571Z,59.42
2023-11-18T21:15:40.398Z,59.42
2023-11-18T21:18:13.582Z,59.48
2023-11-18T21:20:46.020Z,59.29
2023-11-18T21:23:17.054Z,59.09
2023-11-18T21:25:47.869Z,59.07
2023-11-18T21:28:22.018Z,58.89
2023-11-18T21:30:52.730Z,58.85
2023-11-18T21:33:24.350Z,58.53
2023-11-18T21:35:55.737Z,58.62
2023-11-18T21:38:26.454Z,58.58
2023-11-18T21:40:57.243Z,58.82
2023-11-18T21:43:28.143Z,58.60
2023-11-18T21:45:59.379Z,58.65
2023-11-18T21:48:31.613Z,58.45
2023-11-18T21:51:02.340Z,58.50
2023-11-18T21:53:33.048Z,58.70
2023-11-18T21:56:04.349Z,58.81
2023-11-18T21:58:35.030Z,58.91
2023-11-18T22:01:06.705Z,58.76
2023-11-18T22:03:37.524Z,58.75
2023-11-18T22:06:09.158Z,58.97
2023-11-18T22:08:41.564Z,59.07
2023-11-18T22:11:12.305Z,58.80
2023-11-18T22:13:43.038Z,58.90
2023-11-18T22:16:13.824Z,59.25
2023-11-18T22:18:44.915Z,59.42
2023-11-18T22:21:16.775Z,59.39
2023-11-18T22:23:47.460Z,59.49
2023-11-18T22:26:18.370Z,59.46
2023-11-18T22:28:49.076Z,59.96
2023-11-18T22:31:22.540Z,60.09
2023-11-18T22:33:53.212Z,59.95
2023-11-18T22:36:23.907Z,59.87
2023-11-18T22:38:54.551Z,59.70
2023-11-18T22:41:25.291Z,59.61
2023-11-18T22:43:55.940Z,59.31
2023-11-18T22:46:26.705Z,59.10
2023-11-18T22:48:57.392Z,59.22
2023-11-18T22:51:28.678Z,59.08
2023-11-18T22:53:59.771Z,59.72
2023-11-18T22:56:30.506Z,60.40
2023-11-18T22:59:02.353Z,59.91
2023-11-18T23:01:33.117Z,59.70
2023-11-18T23:04:12.715Z,59.64
2023-11-18T23:06:43.763Z,59.37
2023-11-18T23:09:14.445Z,59.28
2023-11-18T23:11:47.399Z,59.26
2023-11-18T23:14:18.856Z,59.30
2023-11-18T23:16:51.848Z,59.54
2023-11-18T23:19:22.685Z,59.50
2023-11-18T23:21:53.406Z,59.57
2023-11-18T23:24:24.115Z,59.37
2023-11-18T23:26:56.833Z,59.21
2023-11-18T23:29:27.666Z,58.88
2023-11-18T23:31:58.640Z,59.05
2023-11-18T23:34:29.505Z,59.33
2023-11-18T23:37:00.288Z,59.27
2023-11-18T23:39:32.002Z,58.88
2023-11-18T23:42:03.428Z,58.81
2023-11-18T23:44:35.098Z,58.65
2023-11-18T23:47:06.755Z,58.60
2023-11-18T23:49:37.576Z,58.35
2023-11-18T23:52:08.848Z,58.13
2023-11-18T23:54:40.778Z,58.41
2023-11-18T23:57:12.709Z,58.09
2023-11-18T23:59:44.692Z,58.19
